Huvudsida
METAR-TAF:

METAR-TAF

Flygplatser :

Al Najafflygplats

Najaf, Irak

latitud: 31-59-23N, longitud: 44-24-15E, höjd: 31 m

Aktuellt väderrapport

Denna rapport gjordes för 17 minuter sedan, klockan 23:00 UTC
Stilla vind
Temperatur 18°C
Fuktighet 56%
Tryck 1014 hPa
Sikt: 7000 m

METAR: ORNI 152300Z 00000KT 7000 NSC 18/09 Q1014 NOSIG

Tid: 02:17 (23:17 UTC)

Väderprognos

Denna rapport gjordes för 6 timmar och 17 minuter sedan, klockan 17:00 UTC
Prognos gäller från 15 kl. 18 UTC till 16 kl. 18 UTC
Vind 6 kt från nord/nordost
Sikt: 7000 m

TAF: ORNI 151700Z 1518/1618 02006KT 7000 NSC

Aktuella väderrapporter och prognoser från 4000 flygplatser (METAR- och TAF-rapporter).

De tillgängliga stationerna syns som gula och röda prickar på kartan.

För musen över prickarna för att se namnen på stationerna.

Klicka sedan för att få väderrapporter och prognoser.

För att ändra kartan: Klicka på de gröna knapparna med ett svart kors på för att zooma in; den gröna knappen med ett streck på för att zooma ut; eller på de gröna pilarna för angränsande kartor.


METAR-TAF: